Wetterdaten: aktuell Donnerstag, 03.09.2026 01:20
Datum Zeit Arbeit-Z. Temp. A. Bod.+5cm Temp. A. min Temp. A. max Bl.Temp +1m BTemp -5cm BTemp -10cm BTemp -20cm BTemp -50cm Feuchte I. Feuchte A. BlattFeu +1m BFeucht -5cm BFeucht-10cm BFeucht-20cm BFeucht-50cm Luftdruck Regen Wind Richtung Richtung Sonnenschein ET UV Solar Taupunkt Windchill Windböen Empfang
03.09.2026 01:20 24,8 °C 17,3 °C 15,6 °C 17,2 °C 17,3 °C 19,4 °C 19,4 °C 21,1 °C 20,6 °C 20,6 °C 49 % 77 % 0 lf 200 cb 200 cb 200 cb 123 cb 1019,3 hPa 0,0 l/m² 0,1 km/h (0 Bft) SO 143 ° 0 min 0,025 mm 0,0 UV-I 0 W/m² 13,2 °C 17,3 °C 1,6 km/h (1 Bft) 91,96 %
03.09.2026 00:20 24,8 °C 17,7 °C 16,1 °C 17,7 °C 17,8 °C 20,0 °C 20,0 °C 21,1 °C 20,6 °C 20,6 °C 49 % 77 % 0 lf 200 cb 200 cb 200 cb 123 cb 1019,3 hPa 0,0 l/m² 0,0 km/h (0 Bft) O-SO 112 ° 0 min 0,000 mm 0,0 UV-I 0 W/m² 13,6 °C 17,7 °C 0,0 km/h (0 Bft) 93,69 %
02.09.2026 23:20 24,8 °C 18,8 °C 16,7 °C 18,8 °C 18,9 °C 20,6 °C 20,6 °C 21,1 °C 20,6 °C 20,6 °C 49 % 74 % 0 lf 200 cb 200 cb 200 cb 123 cb 1018,8 hPa 0,0 l/m² 0,6 km/h (0 Bft) O-SO 111 ° 0 min 0,025 mm 0,0 UV-I 0 W/m² 14,1 °C 18,8 °C 3,2 km/h (1 Bft) 95,04 %
02.09.2026 22:20 24,8 °C 18,9 °C 17,2 °C 18,8 °C 18,9 °C 20,6 °C 20,6 °C 21,1 °C 20,6 °C 20,6 °C 49 % 75 % 0 lf 200 cb 200 cb 200 cb 123 cb 1018,7 hPa 0,0 l/m² 0,0 km/h (0 Bft) S 178 ° 0 min 0,025 mm 0,0 UV-I 0 W/m² 14,4 °C 18,9 °C 1,6 km/h (1 Bft) 95,04 %
02.09.2026 21:20 24,9 °C 20,0 °C 18,3 °C 20,0 °C 20,2 °C 21,1 °C 21,1 °C 21,1 °C 20,6 °C 20,6 °C 48 % 72 % 0 lf 200 cb 200 cb 200 cb 122 cb 1018,3 hPa 0,0 l/m² 0,0 km/h (0 Bft) S-SO 151 ° 0 min 0,000 mm 0,0 UV-I 0 W/m² 14,8 °C 20,0 °C 0,0 km/h (0 Bft) 96,61 %
02.09.2026 20:20 25,1 °C 22,7 °C 20,0 °C 22,7 °C 22,9 °C 21,7 °C 21,7 °C 21,1 °C 20,6 °C 20,6 °C 47 % 60 % 0 lf 200 cb 200 cb 200 cb 122 cb 1017,6 hPa 0,0 l/m² 0,0 km/h (0 Bft) W-NW 297 ° 0 min 0,051 mm 0,0 UV-I 0 W/m² 14,5 °C 22,7 °C 0,0 km/h (0 Bft) 99,19 %
02.09.2026 19:20 25,0 °C 25,2 °C 23,9 °C 25,2 °C 25,3 °C 21,7 °C 21,7 °C 21,1 °C 20,0 °C 20,6 °C 48 % 51 % 0 lf 200 cb 200 cb 200 cb 121 cb 1017,1 hPa 0,0 l/m² 0,9 km/h (0 Bft) W 271 ° 0 min 0,102 mm 0,0 UV-I 40 W/m² 14,3 °C 25,2 °C 3,2 km/h (1 Bft) 91,67 %
02.09.2026 18:20 25,0 °C 26,1 °C 25,6 °C 26,1 °C 26,2 °C 21,7 °C 21,7 °C 21,1 °C 20,0 °C 20,6 °C 48 % 49 % 0 lf 200 cb 200 cb 200 cb 121 cb 1017,0 hPa 0,0 l/m² 2,5 km/h (1 Bft) S-SW 193 ° 35 min 0,152 mm 0,0 UV-I 121 W/m² 14,5 °C 26,1 °C 8,0 km/h (2 Bft) 98,20 %
02.09.2026 17:20 24,9 °C 26,1 °C 25,0 °C 25,9 °C 26,2 °C 21,7 °C 21,7 °C 20,6 °C 20,0 °C 20,6 °C 48 % 52 % 0 lf 200 cb 200 cb 200 cb 121 cb 1017,3 hPa 0,0 l/m² 3,3 km/h (1 Bft) W-SW 250 ° 60 min 0,254 mm 0,9 UV-I 197 W/m² 15,5 °C 26,1 °C 8,0 km/h (2 Bft) 97,44 %
02.09.2026 16:20 24,9 °C 26,4 °C 26,1 °C 26,4 °C 26,7 °C 22,2 °C 22,2 °C 20,6 °C 20,0 °C 20,6 °C 48 % 49 % 0 lf 200 cb 200 cb 200 cb 121 cb 1017,2 hPa 0,0 l/m² 4,7 km/h (1 Bft) SW 219 ° 60 min 0,356 mm 2,2 UV-I 272 W/m² 14,8 °C 26,4 °C 9,7 km/h (2 Bft) 94,64 %
02.09.2026 15:20 24,8 °C 27,0 °C 26,1 °C 26,8 °C 27,1 °C 22,2 °C 22,2 °C 20,0 °C 19,4 °C 20,6 °C 48 % 52 % 0 lf 200 cb 200 cb 200 cb 121 cb 1017,4 hPa 0,0 l/m² 6,5 km/h (2 Bft) N-NW 344 ° 60 min 0,457 mm 3,4 UV-I 705 W/m² 16,3 °C 27,0 °C 14,5 km/h (3 Bft) 95,87 %
02.09.2026 14:20 24,7 °C 27,6 °C 26,1 °C 27,0 °C 27,6 °C 22,2 °C 22,2 °C 20,0 °C 19,4 °C 20,6 °C 49 % 53 % 0 lf 200 cb 200 cb 200 cb 121 cb 1017,6 hPa 0,0 l/m² 8,6 km/h (2 Bft) W-NW 299 ° 60 min 0,432 mm 3,5 UV-I 591 W/m² 17,1 °C 27,2 °C 14,5 km/h (3 Bft) 96,43 %
02.09.2026 13:20 24,6 °C 26,0 °C 24,4 °C 25,8 °C 26,0 °C 21,1 °C 21,1 °C 19,4 °C 19,4 °C 20,6 °C 49 % 56 % 0 lf 200 cb 200 cb 200 cb 121 cb 1017,9 hPa 0,0 l/m² 6,8 km/h (2 Bft) N-NW 346 ° 60 min 0,381 mm 4,1 UV-I 705 W/m² 16,5 °C 25,9 °C 11,3 km/h (2 Bft) 93,33 %
02.09.2026 12:20 24,6 °C 24,3 °C 23,3 °C 24,2 °C 24,4 °C 20,0 °C 20,0 °C 19,4 °C 19,4 °C 20,6 °C 49 % 62 % 0 lf 200 cb 200 cb 200 cb 121 cb 1018,4 hPa 0,0 l/m² 4,2 km/h (1 Bft) N 355 ° 60 min 0,330 mm 4,2 UV-I 823 W/m² 16,5 °C 24,3 °C 14,5 km/h (3 Bft) 93,52 %
02.09.2026 11:20 24,4 °C 22,3 °C 20,6 °C 22,3 °C 22,7 °C 18,9 °C 18,9 °C 18,9 °C 19,4 °C 20,6 °C 50 % 66 % 0 lf 200 cb 200 cb 200 cb 120 cb 1018,6 hPa 0,0 l/m² 5,1 km/h (1 Bft) N 10 ° 60 min 0,279 mm 2,1 UV-I 373 W/m² 15,6 °C 22,3 °C 8,0 km/h (2 Bft) 96,49 %
02.09.2026 10:20 24,2 °C 19,8 °C 18,3 °C 19,2 °C 19,8 °C 17,8 °C 17,8 °C 19,4 °C 20,0 °C 20,6 °C 47 % 71 % 0 lf 200 cb 200 cb 200 cb 120 cb 1018,8 hPa 0,0 l/m² 1,4 km/h (1 Bft) W-NW 289 ° 35 min 0,127 mm 1,7 UV-I 427 W/m² 14,4 °C 19,8 °C 4,8 km/h (1 Bft) 95,54 %
02.09.2026 09:20 24,3 °C 18,1 °C 17,2 °C 18,0 °C 18,2 °C 17,8 °C 17,8 °C 19,4 °C 20,0 °C 20,6 °C 47 % 75 % 0 lf 200 cb 200 cb 200 cb 120 cb 1018,3 hPa 0,0 l/m² 1,3 km/h (1 Bft) N-NW 329 ° 20 min 0,051 mm 0,5 UV-I 127 W/m² 13,6 °C 18,1 °C 3,2 km/h (1 Bft) 96,52 %
02.09.2026 08:20 24,7 °C 16,8 °C 15,6 °C 16,6 °C 16,8 °C 17,8 °C 17,8 °C 19,4 °C 20,0 °C 20,6 °C 46 % 75 % 0 lf 200 cb 200 cb 200 cb 119 cb 1017,9 hPa 0,0 l/m² 2,4 km/h (1 Bft) O-NO 58 ° 0 min 0,026 mm 0,0 UV-I 79 W/m² 12,3 °C 16,8 °C 6,4 km/h (2 Bft) 96,58 %
02.09.2026 07:20 24,8 °C 15,5 °C 14,4 °C 15,4 °C 15,6 °C 17,8 °C 17,8 °C 19,4 °C 20,0 °C 20,6 °C 46 % 79 % 0 lf 200 cb 200 cb 200 cb 119 cb 1018,1 hPa 0,0 l/m² 0,7 km/h (0 Bft) S-SW 211 ° 0 min 0,000 mm 0,0 UV-I 25 W/m² 11,9 °C 15,5 °C 6,4 km/h (2 Bft) 92,25 %
02.09.2026 06:20 24,9 °C 15,9 °C 14,4 °C 15,9 °C 16,0 °C 17,8 °C 17,8 °C 19,4 °C 20,0 °C 20,6 °C 46 % 78 % 0 lf 200 cb 200 cb 200 cb 119 cb 1018,0 hPa 0,0 l/m² 0,1 km/h (0 Bft) O 97 ° 0 min 0,025 mm 0,0 UV-I 0 W/m² 12,1 °C 15,9 °C 1,6 km/h (1 Bft) 98,15 %
02.09.2026 05:20 24,9 °C 16,2 °C 15,0 °C 16,2 °C 16,2 °C 18,3 °C 18,3 °C 20,0 °C 20,0 °C 20,6 °C 46 % 77 % 0 lf 200 cb 200 cb 200 cb 119 cb 1017,8 hPa 0,0 l/m² 3,6 km/h (1 Bft) S-SO 153 ° 0 min 0,025 mm 0,0 UV-I 0 W/m² 12,2 °C 16,2 °C 14,5 km/h (3 Bft) 92,92 %
02.09.2026 04:20 24,9 °C 16,8 °C 15,6 °C 16,7 °C 16,8 °C 18,3 °C 18,3 °C 20,0 °C 20,0 °C 20,6 °C 46 % 75 % 0 lf 200 cb 200 cb 200 cb 118 cb 1018,0 hPa 0,0 l/m² 3,9 km/h (1 Bft) SO 137 ° 0 min 0,026 mm 0,0 UV-I 0 W/m² 12,3 °C 16,8 °C 14,5 km/h (3 Bft) 98,11 %
02.09.2026 03:20 25,0 °C 16,8 °C 15,6 °C 16,8 °C 16,8 °C 18,3 °C 18,3 °C 20,0 °C 20,6 °C 20,6 °C 47 % 76 % 0 lf 200 cb 200 cb 200 cb 118 cb 1017,9 hPa 0,0 l/m² 2,9 km/h (1 Bft) N-NO 21 ° 0 min 0,025 mm 0,0 UV-I 0 W/m² 12,5 °C 16,8 °C 12,9 km/h (3 Bft) 96,61 %
02.09.2026 02:20 25,1 °C 17,1 °C 15,6 °C 17,1 °C 17,1 °C 18,9 °C 18,9 °C 20,6 °C 20,6 °C 20,6 °C 47 % 75 % 0 lf 200 cb 200 cb 200 cb 117 cb 1018,3 hPa 0,0 l/m² 2,9 km/h (1 Bft) S-SO 159 ° 0 min 0,001 mm 0,0 UV-I 0 W/m² 12,6 °C 17,1 °C 11,3 km/h (2 Bft) 91,67 %
02.09.2026 02:00 25,1 °C 17,1 °C 15,6 °C 17,1 °C 17,2 °C 18,9 °C 18,9 °C 20,6 °C 20,6 °C 20,6 °C 47 % 76 % 0 lf 200 cb 200 cb 200 cb 117 cb 1018,3 hPa 0,0 l/m² 3,6 km/h (1 Bft) O-SO 108 ° 0 min 0,000 mm 0,0 UV-I 0 W/m² 12,8 °C 17,1 °C 14,5 km/h (3 Bft) 97,46 %
_ Min-Zeit 10:00 06:55 06:40 06:55 06:50 05:30 05:30 10:30 11:05 02:00 08:40 15:45 02:00 02:00 02:00 02:00 02:00 18:40 - 20:00 - - - - - - 06:45 06:45 20:05 00:00
Minimum _ 24,2 °C 15,2 °C 13,9 °C 15,2 °C 15,3 °C 17,8 °C 17,8 °C 18,9 °C 19,4 °C 20,6 °C 45 % 48 % 0 lf 200 cb 200 cb 200 cb 117 cb 1016,9 hPa - 0,0 km/h (0 Bft) - - - - - - 11,9 °C 15,3 °C 0,0 km/h (0 Bft) 89,66 %
_ Max-Zeit 02:00 14:20 15:40 15:30 14:20 13:55 13:55 17:30 02:00 02:00 11:05 00:55 02:00 02:00 02:00 02:00 22:20 00:20 02:00 13:25 - - 09:00 15:00 13:00 12:20 12:30 15:40 16:55 15:00
Maximum _ 25,1 °C 27,6 °C 27,8 °C 27,3 °C 27,6 °C 22,2 °C 22,2 °C 21,1 °C 20,6 °C 20,6 °C 50 % 81 % 0 lf 200 cb 200 cb 200 cb 123 cb 1019,3 hPa 0,0 l/m² 9,8 km/h
N (2 Bft)
- - 5 min 0,457 mm 4,4 UV-I 823 W/m² 17,9 °C 27,4 °C 24,1 km/h
N-NW (4 Bft)
99,19 %
Durchschnitt _ 24,8 °C 20,5 °C 19,2 °C 20,4 °C 20,6 °C 19,9 °C 19,9 °C 20,2 °C 20,1 °C 20,6 °C 48 % 68 % 0 lf 200 cb 200 cb 200 cb 120 cb 1018,0 hPa #0,0 l/m² 2,8 km/h (1 Bft) N-NW - #0 min. #0,025 mm 0,0 UV-I 0 W/m² 14,1 °C 20,5 °C 8,4 km/h (2 Bft) 95,62 %
copy; 2009 Dieter Kraft